createdAt,value
2022-12-14T00:01:19.269Z,6.85
2022-12-14T00:03:46.556Z,6.85
2022-12-14T00:06:14.090Z,6.15
2022-12-14T00:08:42.061Z,7.20
2022-12-14T00:11:09.478Z,6.85
2022-12-14T00:13:37.016Z,6.82
2022-12-14T00:16:14.071Z,5.95
2022-12-14T00:18:41.403Z,6.45
2022-12-14T00:21:10.593Z,6.45
2022-12-14T00:23:39.326Z,5.50
2022-12-14T00:26:15.542Z,7.53
2022-12-14T00:28:43.137Z,6.35
2022-12-14T00:31:10.882Z,6.70
2022-12-14T00:33:37.764Z,6.38
2022-12-14T00:36:06.102Z,7.00
2022-12-14T00:38:32.543Z,6.50
2022-12-14T00:40:59.509Z,6.07
2022-12-14T00:43:26.050Z,6.20
2022-12-14T00:45:52.742Z,7.15
2022-12-14T00:48:21.747Z,6.55
2022-12-14T00:50:50.276Z,7.32
2022-12-14T00:53:17.416Z,5.82
2022-12-14T00:55:49.421Z,6.97
2022-12-14T00:58:19.610Z,6.00
2022-12-14T01:00:47.263Z,6.70
2022-12-14T01:03:14.234Z,6.63
2022-12-14T01:05:40.776Z,6.93
2022-12-14T01:08:07.521Z,5.72
2022-12-14T01:10:34.053Z,7.20
2022-12-14T01:13:00.572Z,6.95
2022-12-14T01:15:26.923Z,6.03
2022-12-14T01:17:53.332Z,6.85
2022-12-14T01:20:20.779Z,5.38
2022-12-14T01:22:47.174Z,7.22
2022-12-14T01:25:13.523Z,6.53
2022-12-14T01:27:39.919Z,6.28
2022-12-14T01:30:06.821Z,5.68
2022-12-14T01:32:34.721Z,6.43
2022-12-14T01:35:01.119Z,6.47
2022-12-14T01:37:28.890Z,7.15
2022-12-14T01:39:55.520Z,7.60
2022-12-14T01:42:22.582Z,7.18
2022-12-14T01:44:55.783Z,6.85
2022-12-14T01:47:38.302Z,6.47
2022-12-14T01:50:16.480Z,6.70
2022-12-14T01:52:46.920Z,6.38
2022-12-14T01:55:24.705Z,6.47
2022-12-14T01:57:57.539Z,5.85
2022-12-14T02:00:24.474Z,5.47
2022-12-14T02:03:14.584Z,5.75
2022-12-14T02:05:46.290Z,6.35
2022-12-14T02:10:39.376Z,5.28
2022-12-14T02:13:14.765Z,5.32
2022-12-14T02:15:42.026Z,5.35
2022-12-14T02:18:12.078Z,6.13
2022-12-14T02:20:52.440Z,4.97
2022-12-14T02:23:37.609Z,5.18
2022-12-14T02:26:26.862Z,5.78
2022-12-14T02:29:15.137Z,6.03
2022-12-14T02:32:15.245Z,5.78
2022-12-14T02:35:07.406Z,5.40
2022-12-14T02:37:49.208Z,5.45
2022-12-14T02:40:15.760Z,5.65
2022-12-14T02:42:56.322Z,5.40
2022-12-14T02:45:45.922Z,5.53
2022-12-14T02:48:18.953Z,6.63
2022-12-14T02:50:56.111Z,5.78
2022-12-14T02:53:58.908Z,6.85
2022-12-14T02:56:31.744Z,5.18
2022-12-14T02:58:58.196Z,5.97
2022-12-14T03:01:27.592Z,4.95
2022-12-14T03:03:54.059Z,5.45
2022-12-14T03:06:26.656Z,5.43
2022-12-14T03:09:04.020Z,4.85
2022-12-14T03:11:41.188Z,5.88
2022-12-14T03:14:19.217Z,6.07
2022-12-14T03:16:51.880Z,6.18
2022-12-14T03:19:30.321Z,6.25
2022-12-14T03:22:01.257Z,5.80
2022-12-14T03:24:32.546Z,5.47
2022-12-14T03:27:14.285Z,5.75
2022-12-14T03:29:47.479Z,5.32
2022-12-14T03:32:18.829Z,6.97
2022-12-14T03:35:09.247Z,5.40
2022-12-14T03:37:56.820Z,6.20
2022-12-14T03:40:30.931Z,5.65
2022-12-14T03:43:21.839Z,5.80
2022-12-14T03:46:09.416Z,5.70
2022-12-14T03:48:50.065Z,5.55
2022-12-14T03:51:42.626Z,6.13
2022-12-14T03:54:30.839Z,5.28
2022-12-14T03:57:06.909Z,5.95
2022-12-14T03:59:50.592Z,6.38
2022-12-14T04:02:37.609Z,6.10
2022-12-14T04:05:19.889Z,6.00
2022-12-14T04:07:55.353Z,4.75
2022-12-14T04:10:47.437Z,4.88
2022-12-14T04:13:41.146Z,5.88
2022-12-14T04:16:53.239Z,5.55
2022-12-14T04:19:49.866Z,5.60
2022-12-14T04:22:24.373Z,6.25
2022-12-14T04:25:31.160Z,6.35
2022-12-14T04:28:05.088Z,5.60
2022-12-14T04:30:37.943Z,5.93
2022-12-14T04:33:29.747Z,6.57
2022-12-14T04:35:59.930Z,6.60
2022-12-14T04:38:33.359Z,5.82
2022-12-14T04:41:06.412Z,6.20
2022-12-14T04:43:38.626Z,6.00
2022-12-14T04:46:08.919Z,6.40
2022-12-14T04:48:45.036Z,7.32
2022-12-14T04:51:31.220Z,5.78
2022-12-14T04:54:09.497Z,5.72
2022-12-14T04:56:46.102Z,5.72
2022-12-14T04:59:12.790Z,5.95
2022-12-14T05:02:15.758Z,6.25
2022-12-14T05:04:54.862Z,5.95
2022-12-14T05:07:54.966Z,6.53
2022-12-14T05:10:40.851Z,6.05
2022-12-14T05:13:27.938Z,6.10
2022-12-14T05:15:56.887Z,6.05
2022-12-14T05:18:23.867Z,6.22
2022-12-14T05:20:50.471Z,5.97
2022-12-14T05:23:17.402Z,5.65
2022-12-14T05:25:44.101Z,6.97
2022-12-14T05:28:12.094Z,7.20
2022-12-14T05:30:38.856Z,7.40
2022-12-14T05:33:05.589Z,6.20
2022-12-14T05:35:32.048Z,6.82
2022-12-14T05:37:58.374Z,6.55
2022-12-14T05:40:24.756Z,6.40
2022-12-14T05:42:55.686Z,7.05
2022-12-14T05:45:22.511Z,7.25
2022-12-14T05:47:48.903Z,6.05
2022-12-14T05:50:15.340Z,7.07
2022-12-14T05:52:41.668Z,6.45
2022-12-14T05:55:08.652Z,6.25
2022-12-14T05:57:35.002Z,5.85
2022-12-14T06:00:01.478Z,5.82
2022-12-14T06:02:27.983Z,6.28
2022-12-14T06:04:54.429Z,7.43
2022-12-14T06:07:26.069Z,6.60
2022-12-14T06:09:54.525Z,6.32
2022-12-14T06:12:20.892Z,6.28
2022-12-14T06:14:47.237Z,5.18
2022-12-14T06:17:13.572Z,6.22
2022-12-14T06:19:39.912Z,6.18
2022-12-14T06:22:06.311Z,5.97
2022-12-14T06:24:32.649Z,6.20
2022-12-14T06:26:59.032Z,6.00
2022-12-14T06:29:26.651Z,6.43
2022-12-14T06:31:53.030Z,7.53
2022-12-14T06:34:23.445Z,11.13
2022-12-14T06:36:52.873Z,7.15
2022-12-14T06:39:19.399Z,7.43
2022-12-14T06:41:50.823Z,6.55
2022-12-14T06:44:17.390Z,6.60
2022-12-14T06:46:44.701Z,5.93
2022-12-14T06:49:14.263Z,5.90
2022-12-14T06:51:41.213Z,6.00
2022-12-14T06:54:12.903Z,6.72
2022-12-14T06:56:39.730Z,6.22
2022-12-14T06:59:06.174Z,5.95
2022-12-14T07:01:32.686Z,7.05
2022-12-14T07:03:59.616Z,6.25
2022-12-14T07:06:28.657Z,5.68
2022-12-14T07:08:57.234Z,6.82
2022-12-14T07:11:25.012Z,6.10
2022-12-14T07:13:51.402Z,7.57
2022-12-14T07:16:25.936Z,6.50
2022-12-14T07:18:54.067Z,5.85
2022-12-14T07:21:21.492Z,5.82
2022-12-14T07:23:49.382Z,6.68
2022-12-14T07:26:19.727Z,6.43
2022-12-14T07:28:46.539Z,6.95
2022-12-14T07:31:24.311Z,8.07
2022-12-14T07:33:55.821Z,6.63
2022-12-14T07:36:24.278Z,6.53
2022-12-14T07:38:51.972Z,7.35
2022-12-14T07:41:22.994Z,9.38
2022-12-14T07:43:51.404Z,6.00
2022-12-14T07:46:20.816Z,5.95
2022-12-14T07:48:52.026Z,6.63
2022-12-14T07:51:20.953Z,6.20
2022-12-14T07:53:47.970Z,5.45
2022-12-14T07:56:17.246Z,5.88
2022-12-14T07:58:44.170Z,6.03
2022-12-14T08:01:19.237Z,5.13
2022-12-14T08:03:48.988Z,5.63
2022-12-14T08:06:16.746Z,4.68
2022-12-14T08:08:43.388Z,4.78
2022-12-14T08:11:10.604Z,5.60
2022-12-14T08:13:40.681Z,5.38
2022-12-14T08:16:10.548Z,5.35
2022-12-14T08:18:37.037Z,5.10
2022-12-14T08:21:04.805Z,5.57
2022-12-14T08:23:31.511Z,5.18
2022-12-14T08:26:00.199Z,5.88
2022-12-14T08:28:28.452Z,4.88
2022-12-14T08:30:55.097Z,4.72
2022-12-14T08:33:22.217Z,4.32
2022-12-14T08:35:48.537Z,4.45
2022-12-14T08:38:15.509Z,5.15
2022-12-14T08:40:41.930Z,4.47
2022-12-14T08:43:09.056Z,5.32
2022-12-14T08:45:36.062Z,6.03
2022-12-14T08:48:02.614Z,5.07
2022-12-14T08:50:29.377Z,5.32
2022-12-14T08:52:55.876Z,5.57
2022-12-14T08:55:28.235Z,5.13
2022-12-14T08:57:55.654Z,4.85
2022-12-14T09:00:22.068Z,5.15
2022-12-14T09:02:51.752Z,5.78
2022-12-14T09:05:18.206Z,5.53
2022-12-14T09:07:44.740Z,4.97
2022-12-14T09:10:11.305Z,4.97
2022-12-14T09:12:37.718Z,5.40
2022-12-14T09:15:04.286Z,4.75
2022-12-14T09:17:30.835Z,4.90
2022-12-14T09:19:58.026Z,4.18
2022-12-14T09:22:24.528Z,5.35
2022-12-14T09:24:52.269Z,5.47
2022-12-14T09:27:18.730Z,4.90
2022-12-14T09:29:45.035Z,4.35
2022-12-14T09:32:13.555Z,4.78
2022-12-14T09:34:39.859Z,4.93
2022-12-14T09:37:07.336Z,4.03
2022-12-14T09:39:36.032Z,3.83
2022-12-14T09:42:26.292Z,4.50
2022-12-14T09:45:00.500Z,4.35
2022-12-14T09:47:43.053Z,4.22
2022-12-14T09:50:15.839Z,4.72
2022-12-14T09:52:51.663Z,4.13
2022-12-14T09:55:42.032Z,4.97
2022-12-14T09:58:28.205Z,4.15
2022-12-14T10:01:22.515Z,4.88
2022-12-14T10:04:11.978Z,3.88
2022-12-14T10:06:49.950Z,4.72
2022-12-14T10:09:31.115Z,5.18
2022-12-14T10:12:15.808Z,4.32
2022-12-14T10:14:52.211Z,4.93
2022-12-14T10:18:00.065Z,5.15
2022-12-14T10:20:50.929Z,4.95
2022-12-14T10:23:23.180Z,4.95
2022-12-14T10:25:54.755Z,5.15
2022-12-14T10:28:44.561Z,5.13
2022-12-14T10:31:18.711Z,5.45
2022-12-14T10:33:46.823Z,5.18
2022-12-14T10:36:26.222Z,5.13
2022-12-14T10:39:01.834Z,4.95
2022-12-14T10:41:28.182Z,5.95
2022-12-14T10:44:03.037Z,5.38
2022-12-14T10:46:39.618Z,6.05
2022-12-14T10:49:33.544Z,6.03
2022-12-14T10:52:14.783Z,4.95
2022-12-14T10:54:49.203Z,6.70
2022-12-14T10:57:20.449Z,6.13
2022-12-14T11:00:03.655Z,7.38
2022-12-14T11:02:39.331Z,6.18
2022-12-14T11:05:37.466Z,5.95
2022-12-14T11:08:08.737Z,5.90
2022-12-14T11:10:40.815Z,4.97
2022-12-14T11:13:13.228Z,6.03
2022-12-14T11:15:42.280Z,5.68
2022-12-14T11:18:11.611Z,6.30
2022-12-14T11:20:48.675Z,7.32
2022-12-14T11:23:20.706Z,6.57
2022-12-14T11:25:54.403Z,6.65
2022-12-14T11:28:38.058Z,6.97
2022-12-14T11:31:07.551Z,6.10
2022-12-14T11:33:50.798Z,6.05
2022-12-14T11:36:24.902Z,6.80
2022-12-14T11:38:59.616Z,6.40
2022-12-14T11:41:35.600Z,7.68
2022-12-14T11:44:22.318Z,6.88
2022-12-14T11:46:57.691Z,7.15
2022-12-14T11:49:38.104Z,6.97
2022-12-14T11:52:04.361Z,7.55
2022-12-14T11:54:39.993Z,6.40
2022-12-14T11:57:16.746Z,7.20
2022-12-14T12:00:05.470Z,6.25
2022-12-14T12:05:16.415Z,5.90
2022-12-14T12:07:51.011Z,6.00
2022-12-14T12:10:20.347Z,6.90
2022-12-14T12:13:15.403Z,6.80
2022-12-14T12:15:49.998Z,7.53
2022-12-14T12:18:22.472Z,6.47
2022-12-14T12:20:59.009Z,6.75
2022-12-14T12:23:37.384Z,5.97
2022-12-14T12:26:14.266Z,6.63
2022-12-14T12:28:47.891Z,7.10
2022-12-14T12:31:22.780Z,7.50
2022-12-14T12:34:01.717Z,7.07
2022-12-14T12:36:30.537Z,7.43
2022-12-14T12:39:04.129Z,5.97
2022-12-14T12:41:53.913Z,6.80
2022-12-14T12:44:34.934Z,7.18
2022-12-14T12:47:37.014Z,6.88
2022-12-14T12:50:19.165Z,7.90
2022-12-14T12:53:00.907Z,7.07
2022-12-14T12:55:35.254Z,7.32
2022-12-14T12:58:03.772Z,7.18
2022-12-14T13:00:31.666Z,8.40
2022-12-14T13:03:05.481Z,7.72
2022-12-14T13:05:51.196Z,7.47
2022-12-14T13:08:25.996Z,7.63
2022-12-14T13:11:24.598Z,6.75
2022-12-14T13:13:54.171Z,6.63
2022-12-14T13:16:28.119Z,7.07
2022-12-14T13:19:18.954Z,6.03
2022-12-14T13:21:51.060Z,8.00
2022-12-14T13:24:20.467Z,7.95
2022-12-14T13:27:12.270Z,7.18
2022-12-14T13:30:08.633Z,6.80
2022-12-14T13:32:43.820Z,8.10
2022-12-14T13:35:28.286Z,7.72
2022-12-14T13:38:12.688Z,6.75
2022-12-14T13:41:10.483Z,7.25
2022-12-14T13:43:55.812Z,6.50
2022-12-14T13:46:29.081Z,7.30
2022-12-14T13:49:00.675Z,8.60
2022-12-14T13:54:02.846Z,8.10
2022-12-14T13:56:33.562Z,6.93
2022-12-14T13:59:03.103Z,6.72
2022-12-14T14:01:47.852Z,7.90
2022-12-14T14:04:18.279Z,7.28
2022-12-14T14:06:50.038Z,7.03
2022-12-14T14:09:28.552Z,7.82
2022-12-14T14:11:58.316Z,6.85
2022-12-14T14:14:36.518Z,7.82
2022-12-14T14:17:11.755Z,6.78
2022-12-14T14:19:40.948Z,7.82
2022-12-14T14:22:26.407Z,7.70
2022-12-14T14:25:09.578Z,6.95
2022-12-14T14:27:38.711Z,6.10
2022-12-14T14:30:34.793Z,7.57
2022-12-14T14:33:43.312Z,6.65
2022-12-14T14:35:49.714Z,6.53
2022-12-14T14:38:31.923Z,6.80
2022-12-14T14:41:19.078Z,7.53
2022-12-14T14:43:59.655Z,7.63
2022-12-14T14:46:48.406Z,6.97
2022-12-14T14:49:30.290Z,7.45
2022-12-14T14:51:57.119Z,7.88
2022-12-14T14:55:11.061Z,7.00
2022-12-14T14:57:57.713Z,8.07
2022-12-14T15:00:24.710Z,7.13
2022-12-14T15:02:54.077Z,7.20
2022-12-14T15:05:44.313Z,6.75
2022-12-14T15:08:31.507Z,7.03
2022-12-14T15:11:03.126Z,8.40
2022-12-14T15:13:46.201Z,7.88
2022-12-14T15:16:43.228Z,8.07
2022-12-14T15:19:33.472Z,7.20
2022-12-14T15:22:05.025Z,7.93
2022-12-14T15:27:08.674Z,7.32
2022-12-14T15:29:35.130Z,6.88
2022-12-14T15:32:03.992Z,7.75
2022-12-14T15:34:30.723Z,7.82
2022-12-14T15:36:57.708Z,8.73
2022-12-14T15:39:33.842Z,9.80
2022-12-14T15:42:15.161Z,13.95
2022-12-14T15:44:52.203Z,13.70
2022-12-14T15:47:27.531Z,8.43
2022-12-14T15:49:59.714Z,8.50
2022-12-14T15:52:30.554Z,9.82
2022-12-14T15:54:58.545Z,8.80
2022-12-14T15:57:25.469Z,11.10
2022-12-14T15:59:55.904Z,10.23
2022-12-14T16:02:30.367Z,8.85
2022-12-14T16:05:00.203Z,10.57
2022-12-14T16:07:48.715Z,8.98
2022-12-14T16:10:35.177Z,8.70
2022-12-14T16:13:33.852Z,8.75
2022-12-14T16:16:06.867Z,9.20
2022-12-14T16:18:33.580Z,8.18
2022-12-14T16:21:03.803Z,9.18
2022-12-14T16:23:34.032Z,8.85
2022-12-14T16:26:22.059Z,7.55
2022-12-14T16:28:48.598Z,8.75
2022-12-14T16:31:20.560Z,9.02
2022-12-14T16:34:02.444Z,8.73
2022-12-14T16:36:31.151Z,8.60
2022-12-14T16:39:01.649Z,7.97
2022-12-14T16:41:44.128Z,8.45
2022-12-14T16:44:22.272Z,11.35
2022-12-14T16:47:00.895Z,8.43
2022-12-14T16:49:39.583Z,9.05
2022-12-14T16:52:28.279Z,11.05
2022-12-14T16:57:51.342Z,8.32
2022-12-14T17:00:22.192Z,7.85
2022-12-14T17:03:00.493Z,8.75
2022-12-14T17:05:35.514Z,11.20
2022-12-14T17:08:02.869Z,9.55
2022-12-14T17:10:30.568Z,10.43
2022-12-14T17:12:58.897Z,11.00
2022-12-14T17:15:26.655Z,10.30
2022-12-14T17:17:55.613Z,10.20
2022-12-14T17:20:29.110Z,11.18
2022-12-14T17:22:58.786Z,9.95
2022-12-14T17:25:27.294Z,11.32
2022-12-14T17:27:54.070Z,10.63
2022-12-14T17:30:24.090Z,11.40
2022-12-14T17:32:52.560Z,10.88
2022-12-14T17:35:26.297Z,10.93
2022-12-14T17:37:52.985Z,10.95
2022-12-14T17:40:19.436Z,12.85
2022-12-14T17:42:51.591Z,11.10
2022-12-14T17:45:22.031Z,11.75
2022-12-14T17:47:48.739Z,10.48
2022-12-14T17:50:16.973Z,10.35
2022-12-14T17:52:43.898Z,10.98
2022-12-14T17:55:22.165Z,11.40
2022-12-14T17:57:49.272Z,11.05
2022-12-14T18:00:46.338Z,10.43
2022-12-14T18:03:14.420Z,10.55
2022-12-14T18:05:48.108Z,11.18
2022-12-14T18:08:19.819Z,11.43
2022-12-14T18:10:51.357Z,11.18
2022-12-14T18:15:49.833Z,8.80
2022-12-14T18:18:18.508Z,9.95
2022-12-14T18:20:49.612Z,9.75
2022-12-14T18:23:16.932Z,9.75
2022-12-14T18:25:52.610Z,10.63
2022-12-14T18:28:19.620Z,13.15
2022-12-14T18:30:49.730Z,11.77
2022-12-14T18:33:22.624Z,13.73
2022-12-14T18:35:51.192Z,13.93
2022-12-14T18:38:17.693Z,10.95
2022-12-14T18:40:49.382Z,11.57
2022-12-14T18:43:19.607Z,13.27
2022-12-14T18:45:46.157Z,13.55
2022-12-14T18:48:12.698Z,12.68
2022-12-14T18:50:42.902Z,14.75
2022-12-14T18:53:14.149Z,13.88
2022-12-14T18:55:42.003Z,12.20
2022-12-14T18:58:15.268Z,12.68
2022-12-14T19:00:41.798Z,11.30
2022-12-14T19:03:08.400Z,9.88
2022-12-14T19:05:35.103Z,11.82
2022-12-14T19:08:01.779Z,14.30
2022-12-14T19:10:30.762Z,11.55
2022-12-14T19:12:58.028Z,12.32
2022-12-14T19:15:27.913Z,12.32
2022-12-14T19:17:55.277Z,12.75
2022-12-14T19:20:23.111Z,13.68
2022-12-14T19:22:49.518Z,14.80
2022-12-14T19:25:17.418Z,14.52
2022-12-14T19:28:20.381Z,11.13
2022-12-14T19:30:31.207Z,10.43
2022-12-14T19:32:58.441Z,9.40
2022-12-14T19:35:24.979Z,10.13
2022-12-14T19:37:51.626Z,11.07
2022-12-14T19:40:19.222Z,9.00
2022-12-14T19:42:48.213Z,9.85
2022-12-14T19:45:15.251Z,11.10
2022-12-14T19:47:42.505Z,11.35
2022-12-14T19:50:12.353Z,9.68
2022-12-14T19:52:38.732Z,10.75
2022-12-14T19:55:05.583Z,9.90
2022-12-14T19:57:32.015Z,11.65
2022-12-14T19:59:59.959Z,11.27
2022-12-14T20:02:26.995Z,10.80
2022-12-14T20:04:53.594Z,11.55
2022-12-14T20:07:19.989Z,10.90
2022-12-14T20:09:46.414Z,10.07
2022-12-14T20:12:12.825Z,10.52
2022-12-14T20:14:39.968Z,10.07
2022-12-14T20:17:07.943Z,12.07
2022-12-14T20:19:34.951Z,11.40
2022-12-14T20:22:01.535Z,10.63
2022-12-14T20:24:28.074Z,12.07
2022-12-14T20:26:54.509Z,13.90
2022-12-14T20:29:20.918Z,12.75
2022-12-14T20:31:47.311Z,10.50
2022-12-14T20:34:13.720Z,12.90
2022-12-14T20:36:40.079Z,13.50
2022-12-14T20:39:06.534Z,12.48
2022-12-14T20:41:33.798Z,12.40
2022-12-14T20:44:02.007Z,14.10
2022-12-14T20:46:33.969Z,14.63
2022-12-14T20:49:03.071Z,13.18
2022-12-14T20:51:31.246Z,13.55
2022-12-14T20:53:58.466Z,15.98
2022-12-14T20:56:25.306Z,13.52
2022-12-14T20:58:51.637Z,10.90
2022-12-14T21:01:19.582Z,13.57
2022-12-14T21:03:48.273Z,12.93
2022-12-14T21:06:16.868Z,13.30
2022-12-14T21:09:04.185Z,11.13
2022-12-14T21:11:58.675Z,10.32
2022-12-14T21:14:27.967Z,14.13
2022-12-14T21:16:54.532Z,13.25
2022-12-14T21:19:21.030Z,13.07
2022-12-14T21:21:53.234Z,13.10
2022-12-14T21:24:44.850Z,15.00
2022-12-14T21:27:09.914Z,11.55
2022-12-14T21:29:37.382Z,11.55
2022-12-14T21:32:04.318Z,12.50
2022-12-14T21:34:31.837Z,12.63
2022-12-14T21:36:58.879Z,12.82
2022-12-14T21:39:25.447Z,11.50
2022-12-14T21:42:10.202Z,12.50
2022-12-14T21:44:37.361Z,12.43
2022-12-14T21:47:06.094Z,12.50
2022-12-14T21:49:32.480Z,13.23
2022-12-14T21:51:58.934Z,11.20
2022-12-14T21:54:26.290Z,12.45
2022-12-14T21:57:11.239Z,12.15
2022-12-14T21:59:40.755Z,11.60
2022-12-14T22:02:11.753Z,12.10
2022-12-14T22:04:40.057Z,12.10
2022-12-14T22:07:06.729Z,12.48
2022-12-14T22:09:33.159Z,12.52
2022-12-14T22:11:59.560Z,11.27
2022-12-14T22:14:26.002Z,11.95
2022-12-14T22:16:52.817Z,12.32
2022-12-14T22:19:22.689Z,12.02
2022-12-14T22:21:49.923Z,12.10
2022-12-14T22:24:16.772Z,11.82
2022-12-14T22:26:44.645Z,14.23
2022-12-14T22:29:11.673Z,12.18
2022-12-14T22:31:38.428Z,10.18
2022-12-14T22:34:06.160Z,11.40
2022-12-14T22:36:32.990Z,12.32
2022-12-14T22:38:59.611Z,11.55
2022-12-14T22:41:26.658Z,10.55
2022-12-14T22:43:55.267Z,12.18
2022-12-14T22:46:21.835Z,11.63
2022-12-14T22:48:48.290Z,13.18
2022-12-14T22:51:15.199Z,11.90
2022-12-14T22:53:42.889Z,12.05
2022-12-14T22:56:17.704Z,11.27
2022-12-14T22:59:22.598Z,11.15
2022-12-14T23:01:49.887Z,11.40
2022-12-14T23:04:17.144Z,10.80
2022-12-14T23:06:43.549Z,11.27
2022-12-14T23:09:28.625Z,11.15
2022-12-14T23:12:13.476Z,11.55
2022-12-14T23:14:59.184Z,11.40
2022-12-14T23:17:44.135Z,10.38
2022-12-14T23:20:29.439Z,11.43
2022-12-14T23:23:14.220Z,9.38
2022-12-14T23:25:59.335Z,9.98
2022-12-14T23:28:44.091Z,11.13
2022-12-14T23:31:34.905Z,10.00
2022-12-14T23:34:19.662Z,10.80
2022-12-14T23:37:04.448Z,9.82
2022-12-14T23:39:49.281Z,11.52
2022-12-14T23:42:34.127Z,11.57
2022-12-14T23:45:18.873Z,10.23
2022-12-14T23:48:03.679Z,10.60
2022-12-14T23:50:49.116Z,10.93
2022-12-14T23:53:34.165Z,11.55
2022-12-14T23:56:19.109Z,10.98
2022-12-14T23:59:03.824Z,10.82
